createdAt,value
2019-05-07T00:01:14.594Z,7.40
2019-05-07T00:03:43.710Z,6.37
2019-05-07T00:06:12.885Z,6.37
2019-05-07T00:08:44.673Z,6.20
2019-05-07T00:11:12.833Z,7.17
2019-05-07T00:13:44.093Z,7.10
2019-05-07T00:16:12.883Z,6.27
2019-05-07T00:18:42.876Z,6.40
2019-05-07T00:21:12.697Z,6.40
2019-05-07T00:23:43.256Z,6.23
2019-05-07T00:26:13.254Z,6.40
2019-05-07T00:28:43.202Z,6.30
2019-05-07T00:31:12.613Z,7.00
2019-05-07T00:33:43.198Z,6.30
2019-05-07T00:36:33.322Z,6.50
2019-05-07T00:39:19.265Z,7.40
2019-05-07T00:41:54.817Z,6.75
2019-05-07T00:44:24.125Z,7.10
2019-05-07T00:46:52.986Z,7.27
2019-05-07T00:49:23.677Z,6.40
2019-05-07T00:51:52.550Z,7.67
2019-05-07T00:54:23.008Z,7.10
2019-05-07T00:56:52.274Z,7.00
2019-05-07T00:59:22.626Z,7.13
2019-05-07T01:01:52.784Z,7.37
2019-05-07T01:04:22.918Z,7.23
2019-05-07T01:06:53.230Z,7.00
2019-05-07T01:09:22.921Z,8.05
2019-05-07T01:11:52.519Z,7.87
2019-05-07T01:14:22.815Z,7.97
2019-05-07T01:16:52.915Z,8.17
2019-05-07T01:19:22.084Z,7.87
2019-05-07T01:21:52.485Z,8.30
2019-05-07T01:24:23.279Z,8.10
2019-05-07T01:26:52.996Z,7.80
2019-05-07T01:29:22.679Z,8.13
2019-05-07T01:32:00.039Z,8.07
2019-05-07T01:34:44.053Z,9.03
2019-05-07T01:37:12.901Z,8.03
2019-05-07T01:39:42.256Z,8.00
2019-05-07T01:42:12.739Z,8.23
2019-05-07T01:44:42.096Z,8.57
2019-05-07T01:47:13.095Z,8.43
2019-05-07T01:49:42.300Z,8.40
2019-05-07T01:52:13.338Z,8.43
2019-05-07T01:54:42.582Z,8.50
2019-05-07T01:57:12.231Z,9.43
2019-05-07T01:59:42.638Z,8.50
2019-05-07T02:02:31.924Z,8.97
2019-05-07T02:05:07.381Z,9.43
2019-05-07T02:07:47.852Z,8.83
2019-05-07T02:10:36.630Z,9.47
2019-05-07T02:13:05.583Z,8.50
2019-05-07T02:15:34.592Z,9.67
2019-05-07T02:18:03.466Z,8.70
2019-05-07T02:20:32.586Z,9.30
2019-05-07T02:23:02.795Z,8.80
2019-05-07T02:25:32.718Z,8.60
2019-05-07T02:28:02.286Z,8.80
2019-05-07T02:30:34.490Z,8.60
2019-05-07T02:33:03.821Z,8.70
2019-05-07T02:35:33.448Z,8.87
2019-05-07T02:38:14.244Z,7.67
2019-05-07T02:40:53.279Z,8.83
2019-05-07T02:43:22.779Z,9.73
2019-05-07T02:46:22.451Z,8.20
2019-05-07T02:48:53.571Z,8.50
2019-05-07T02:51:28.126Z,8.47
2019-05-07T02:54:03.776Z,8.47
2019-05-07T02:56:33.536Z,8.97
2019-05-07T02:59:04.126Z,9.10
2019-05-07T03:01:33.941Z,8.40
2019-05-07T03:04:03.617Z,8.60
2019-05-07T03:06:34.167Z,8.95
2019-05-07T03:09:03.475Z,9.10
2019-05-07T03:11:33.911Z,8.40
2019-05-07T03:14:04.182Z,8.47
2019-05-07T03:16:43.092Z,8.43
2019-05-07T03:19:04.336Z,8.57
2019-05-07T03:21:53.859Z,8.83
2019-05-07T03:24:28.487Z,8.37
2019-05-07T03:26:57.534Z,8.87
2019-05-07T03:29:26.530Z,9.93
2019-05-07T03:31:58.875Z,9.10
2019-05-07T03:35:07.017Z,9.10
2019-05-07T03:37:36.602Z,9.00
2019-05-07T03:40:06.897Z,8.80
2019-05-07T03:42:35.788Z,9.00
2019-05-07T03:45:23.017Z,9.23
2019-05-07T03:47:57.600Z,9.23
2019-05-07T03:50:26.441Z,8.63
2019-05-07T03:52:55.345Z,10.00
2019-05-07T03:55:24.358Z,10.23
2019-05-07T03:57:53.174Z,9.68
2019-05-07T04:00:23.920Z,9.33
2019-05-07T04:02:52.970Z,9.90
2019-05-07T04:05:23.223Z,10.20
2019-05-07T04:07:54.024Z,8.90
2019-05-07T04:10:23.460Z,10.27
2019-05-07T04:12:53.380Z,10.50
2019-05-07T04:15:23.322Z,9.17
2019-05-07T04:17:53.648Z,9.50
2019-05-07T04:20:23.956Z,10.30
2019-05-07T04:22:53.686Z,10.50
2019-05-07T04:25:34.673Z,9.47
2019-05-07T04:28:23.615Z,9.73
2019-05-07T04:30:53.489Z,9.93
2019-05-07T04:33:24.430Z,10.40
2019-05-07T04:36:08.945Z,9.70
2019-05-07T04:38:37.914Z,11.00
2019-05-07T04:41:06.828Z,9.53
2019-05-07T04:43:35.603Z,10.33
2019-05-07T04:46:04.541Z,10.70
2019-05-07T04:48:34.301Z,10.90
2019-05-07T04:51:05.034Z,12.23
2019-05-07T04:53:33.916Z,11.77
2019-05-07T04:56:03.496Z,11.17
2019-05-07T04:58:33.912Z,10.83
2019-05-07T05:01:04.647Z,10.60
2019-05-07T05:03:35.579Z,11.33
2019-05-07T05:06:04.633Z,10.67
2019-05-07T05:08:33.574Z,10.17
2019-05-07T05:11:03.314Z,9.77
2019-05-07T05:13:33.346Z,11.57
2019-05-07T05:16:22.421Z,10.67
2019-05-07T05:18:51.763Z,10.80
2019-05-07T05:21:45.825Z,9.77
2019-05-07T05:24:19.434Z,10.80
2019-05-07T05:26:48.737Z,10.00
2019-05-07T05:29:18.644Z,10.37
2019-05-07T05:31:47.721Z,10.63
2019-05-07T05:34:17.532Z,10.73
2019-05-07T05:36:47.914Z,10.90
2019-05-07T05:39:16.912Z,12.03
2019-05-07T05:41:47.828Z,10.80
2019-05-07T05:44:25.169Z,9.77
2019-05-07T05:46:55.761Z,12.47
2019-05-07T05:49:24.847Z,11.23
2019-05-07T05:52:13.795Z,10.57
2019-05-07T05:54:47.569Z,9.97
2019-05-07T05:57:26.582Z,10.17
2019-05-07T06:00:21.940Z,11.43
2019-05-07T06:02:59.318Z,10.37
2019-05-07T06:05:47.305Z,9.90
2019-05-07T06:08:34.023Z,11.20
2019-05-07T06:11:17.844Z,10.40
2019-05-07T06:13:57.539Z,10.60
2019-05-07T06:16:32.754Z,11.40
2019-05-07T06:19:18.036Z,10.47
2019-05-07T06:22:04.919Z,10.73
2019-05-07T06:24:56.512Z,10.30
2019-05-07T06:27:26.191Z,10.07
2019-05-07T06:29:55.257Z,10.23
2019-05-07T06:32:24.729Z,8.80
2019-05-07T06:34:53.718Z,9.67
2019-05-07T06:37:22.983Z,9.63
2019-05-07T06:40:03.422Z,10.50
2019-05-07T06:42:52.232Z,8.73
2019-05-07T06:45:35.412Z,8.70
2019-05-07T06:48:04.207Z,9.00
2019-05-07T06:50:33.157Z,9.50
2019-05-07T06:53:02.828Z,9.90
2019-05-07T06:55:32.515Z,8.90
2019-05-07T06:58:02.588Z,8.67
2019-05-07T07:01:06.943Z,8.50
2019-05-07T07:03:42.058Z,7.83
2019-05-07T07:06:19.096Z,7.43
2019-05-07T07:09:07.071Z,7.97
2019-05-07T07:11:45.908Z,8.73
2019-05-07T07:14:14.728Z,7.87
2019-05-07T07:16:43.854Z,7.57
2019-05-07T07:19:12.796Z,9.13
2019-05-07T07:21:42.221Z,8.53
2019-05-07T07:24:12.668Z,8.43
2019-05-07T07:26:42.284Z,8.57
2019-05-07T07:29:13.003Z,8.23
2019-05-07T07:31:49.687Z,8.97
2019-05-07T07:34:18.600Z,8.07
2019-05-07T07:37:08.430Z,9.13
2019-05-07T07:39:32.815Z,8.27
2019-05-07T07:42:03.443Z,8.03
2019-05-07T07:44:32.979Z,7.90
2019-05-07T07:47:02.633Z,9.03
2019-05-07T07:49:32.914Z,7.90
2019-05-07T07:52:03.167Z,7.97
2019-05-07T07:54:32.377Z,7.80
2019-05-07T07:57:14.597Z,7.87
2019-05-07T08:00:14.431Z,8.10
2019-05-07T08:02:47.013Z,7.40
2019-05-07T08:05:16.250Z,8.20
2019-05-07T08:07:45.327Z,8.20
2019-05-07T08:10:14.772Z,9.13
2019-05-07T08:12:44.151Z,8.47
2019-05-07T08:15:20.361Z,7.63
2019-05-07T08:17:44.768Z,8.20
2019-05-07T08:20:14.509Z,7.90
2019-05-07T08:22:43.555Z,7.87
2019-05-07T08:25:12.694Z,7.77
2019-05-07T08:27:42.111Z,7.73
2019-05-07T08:30:14.301Z,7.87
2019-05-07T08:32:52.929Z,8.73
2019-05-07T08:35:32.675Z,7.70
2019-05-07T08:38:02.277Z,7.80
2019-05-07T08:40:32.581Z,7.70
2019-05-07T08:43:03.233Z,8.00
2019-05-07T08:46:11.871Z,8.20
2019-05-07T08:48:45.946Z,8.93
2019-05-07T08:51:14.974Z,9.10
2019-05-07T08:53:43.849Z,8.93
2019-05-07T08:56:12.905Z,9.23
2019-05-07T08:58:42.141Z,8.10
2019-05-07T09:01:11.885Z,9.07
2019-05-07T09:03:43.716Z,7.13
2019-05-07T09:06:14.470Z,5.90
2019-05-07T09:08:43.711Z,6.23
2019-05-07T09:11:13.301Z,7.43
2019-05-07T09:13:42.665Z,9.23
2019-05-07T09:16:12.953Z,8.03
2019-05-07T09:18:42.373Z,7.93
2019-05-07T09:21:12.497Z,7.47
2019-05-07T09:23:42.346Z,7.70
2019-05-07T09:26:13.220Z,7.70
2019-05-07T09:28:52.521Z,7.67
2019-05-07T09:31:29.002Z,6.13
2019-05-07T09:33:58.042Z,6.17
2019-05-07T09:36:35.869Z,6.33
2019-05-07T09:39:06.274Z,7.33
2019-05-07T09:41:35.194Z,6.57
2019-05-07T09:44:04.214Z,7.10
2019-05-07T09:46:33.133Z,7.43
2019-05-07T09:49:03.122Z,6.43
2019-05-07T09:51:32.384Z,7.30
2019-05-07T09:54:02.546Z,6.57
2019-05-07T09:56:32.023Z,6.50
2019-05-07T09:59:02.190Z,6.87
2019-05-07T10:01:31.887Z,6.90
2019-05-07T10:04:02.657Z,6.10
2019-05-07T10:06:32.147Z,6.90
2019-05-07T10:09:02.901Z,6.33
2019-05-07T10:11:43.589Z,5.30
2019-05-07T10:14:12.699Z,6.40
2019-05-07T10:16:52.402Z,4.93
2019-05-07T10:19:22.277Z,5.37
2019-05-07T10:21:52.934Z,5.97
2019-05-07T10:24:22.347Z,6.23
2019-05-07T10:26:53.154Z,6.10
2019-05-07T10:29:22.749Z,5.17
2019-05-07T10:31:52.697Z,9.53
2019-05-07T10:34:22.888Z,8.03
2019-05-07T10:36:52.317Z,7.40
2019-05-07T10:39:22.083Z,8.67
2019-05-07T10:41:51.028Z,5.50
2019-05-07T10:44:22.864Z,5.67
2019-05-07T10:47:12.002Z,4.73
2019-05-07T10:49:44.826Z,5.93
2019-05-07T10:52:13.777Z,5.63
2019-05-07T10:54:42.652Z,6.00
2019-05-07T10:57:11.995Z,4.83
2019-05-07T10:59:42.239Z,7.40
2019-05-07T11:02:16.649Z,5.60
2019-05-07T11:04:46.002Z,5.45
2019-05-07T11:07:15.227Z,6.17
2019-05-07T11:09:44.255Z,4.70
2019-05-07T11:12:13.157Z,4.70
2019-05-07T11:14:42.272Z,4.80
2019-05-07T11:17:32.653Z,4.60
2019-05-07T11:20:01.648Z,6.07
2019-05-07T11:22:32.738Z,3.93
2019-05-07T11:25:03.007Z,4.10
2019-05-07T11:27:32.972Z,3.87
2019-05-07T11:30:02.735Z,3.80
2019-05-07T11:32:32.216Z,4.30
2019-05-07T11:35:03.101Z,4.10
2019-05-07T11:37:31.880Z,4.60
2019-05-07T11:40:03.035Z,4.40
2019-05-07T11:43:05.902Z,4.30
2019-05-07T11:45:41.911Z,4.00
2019-05-07T11:48:13.310Z,3.90
2019-05-07T11:51:04.417Z,4.10
2019-05-07T11:53:33.517Z,4.43
2019-05-07T11:56:02.722Z,3.92
2019-05-07T11:58:32.547Z,4.00
2019-05-07T12:01:22.431Z,4.03
2019-05-07T12:03:52.043Z,4.27
2019-05-07T12:06:21.731Z,4.00
2019-05-07T12:08:52.183Z,3.90
2019-05-07T12:11:21.845Z,3.53
2019-05-07T12:13:52.353Z,3.60
2019-05-07T12:16:22.367Z,3.90
2019-05-07T12:18:52.418Z,2.87
2019-05-07T12:21:24.325Z,3.00
2019-05-07T12:23:53.011Z,2.50
2019-05-07T12:26:22.303Z,2.83
2019-05-07T12:28:52.190Z,2.67
2019-05-07T12:31:39.004Z,3.03
2019-05-07T12:34:15.642Z,3.37
2019-05-07T12:36:44.697Z,2.57
2019-05-07T12:39:13.767Z,2.47
2019-05-07T12:41:42.807Z,3.03
2019-05-07T12:44:12.938Z,3.17
2019-05-07T12:46:42.575Z,3.23
2019-05-07T12:49:12.087Z,2.67
2019-05-07T12:51:55.938Z,3.03
2019-05-07T12:54:39.115Z,2.80
2019-05-07T12:57:08.196Z,2.87
2019-05-07T12:59:37.176Z,2.57
2019-05-07T13:02:37.122Z,2.40
2019-05-07T13:04:54.692Z,2.50
2019-05-07T13:07:41.812Z,3.07
2019-05-07T13:10:10.994Z,2.67
2019-05-07T13:12:41.909Z,2.53
2019-05-07T13:15:23.994Z,2.53
2019-05-07T13:17:41.784Z,3.80
2019-05-07T13:20:12.107Z,3.00
2019-05-07T13:22:42.691Z,3.70
2019-05-07T13:25:12.686Z,2.73
2019-05-07T13:27:42.914Z,3.30
2019-05-07T13:30:12.441Z,2.77
2019-05-07T13:32:45.019Z,3.03
2019-05-07T13:35:14.777Z,4.80
2019-05-07T13:37:49.067Z,3.87
2019-05-07T13:40:25.168Z,3.30
2019-05-07T13:43:12.446Z,3.17
2019-05-07T13:45:45.678Z,2.73
2019-05-07T13:48:17.838Z,3.17
2019-05-07T13:50:47.585Z,3.20
2019-05-07T13:53:16.970Z,2.73
2019-05-07T13:55:46.033Z,3.20
2019-05-07T13:58:15.315Z,3.37
2019-05-07T14:00:56.475Z,2.90
2019-05-07T14:03:25.522Z,3.50
2019-05-07T14:05:54.482Z,2.27
2019-05-07T14:08:24.845Z,2.27
2019-05-07T14:10:54.113Z,2.53
2019-05-07T14:13:22.970Z,3.03
2019-05-07T14:16:08.421Z,3.00
2019-05-07T14:18:38.990Z,2.57
2019-05-07T14:21:08.784Z,3.33
2019-05-07T14:23:37.766Z,2.70
2019-05-07T14:26:06.919Z,2.37
2019-05-07T14:28:35.874Z,2.77
2019-05-07T14:31:04.881Z,2.30
2019-05-07T14:33:55.708Z,2.00
2019-05-07T14:36:31.842Z,2.43
2019-05-07T14:39:02.354Z,2.60
2019-05-07T14:41:32.581Z,2.83
2019-05-07T14:44:07.694Z,2.40
2019-05-07T14:46:47.322Z,2.17
2019-05-07T14:49:07.995Z,2.00
2019-05-07T14:51:37.038Z,2.43
2019-05-07T14:54:06.086Z,2.60
2019-05-07T14:56:35.331Z,2.80
2019-05-07T14:59:04.632Z,3.07
2019-05-07T15:01:34.089Z,2.60
2019-05-07T15:04:03.334Z,2.40
2019-05-07T15:06:32.607Z,2.70
2019-05-07T15:09:01.981Z,3.10
2019-05-07T15:11:31.827Z,2.90
2019-05-07T15:14:02.659Z,2.53
2019-05-07T15:16:32.051Z,2.40
2019-05-07T15:19:01.758Z,4.03
2019-05-07T15:21:32.584Z,3.57
2019-05-07T15:24:02.430Z,3.17
2019-05-07T15:26:32.644Z,3.30
2019-05-07T15:29:11.877Z,3.10
2019-05-07T15:31:57.996Z,2.40
2019-05-07T15:34:26.991Z,2.87
2019-05-07T15:36:56.078Z,2.83
2019-05-07T15:39:25.187Z,3.40
2019-05-07T15:41:54.232Z,3.80
2019-05-07T15:44:23.307Z,3.80
2019-05-07T15:46:54.699Z,2.93
2019-05-07T15:49:23.623Z,2.60
2019-05-07T15:51:54.178Z,2.70
2019-05-07T15:54:23.151Z,3.07
2019-05-07T15:56:54.645Z,3.37
2019-05-07T15:59:23.494Z,3.80
2019-05-07T16:01:54.888Z,2.50
2019-05-07T16:04:25.901Z,2.27
2019-05-07T16:06:56.285Z,1.80
2019-05-07T16:09:26.807Z,3.90
2019-05-07T16:11:56.316Z,2.27
2019-05-07T16:14:27.116Z,2.53
2019-05-07T16:17:03.370Z,3.23
2019-05-07T16:19:32.490Z,3.33
2019-05-07T16:22:06.492Z,2.73
2019-05-07T16:24:35.284Z,2.80
2019-05-07T16:27:06.323Z,3.23
2019-05-07T16:29:35.975Z,2.77
2019-05-07T16:32:05.342Z,2.37
2019-05-07T16:34:34.726Z,2.53
2019-05-07T16:37:07.176Z,2.43
2019-05-07T16:39:34.624Z,3.80
2019-05-07T16:42:03.606Z,2.87
2019-05-07T16:44:33.091Z,2.97
2019-05-07T16:47:02.812Z,2.30
2019-05-07T16:49:31.983Z,2.30
2019-05-07T16:52:01.821Z,2.63
2019-05-07T16:54:30.842Z,3.00
2019-05-07T16:57:17.636Z,3.00
2019-05-07T16:59:46.630Z,3.10
2019-05-07T17:02:20.754Z,2.10
2019-05-07T17:05:07.811Z,3.03
2019-05-07T17:07:42.180Z,2.60
2019-05-07T17:10:11.726Z,2.70
2019-05-07T17:12:42.599Z,2.60
2019-05-07T17:15:13.045Z,2.03
2019-05-07T17:17:42.743Z,2.10
2019-05-07T17:20:12.765Z,2.43
2019-05-07T17:22:42.748Z,2.83
2019-05-07T17:25:29.939Z,3.93
2019-05-07T17:27:59.965Z,2.70
2019-05-07T17:30:29.052Z,2.40
2019-05-07T17:32:58.210Z,2.97
2019-05-07T17:35:27.100Z,3.27
2019-05-07T17:38:06.454Z,3.20
2019-05-07T17:40:26.863Z,3.37
2019-05-07T17:42:55.770Z,2.60
2019-05-07T17:45:25.963Z,3.50
2019-05-07T17:47:55.129Z,3.20
2019-05-07T17:50:28.841Z,3.17
2019-05-07T17:52:57.890Z,3.93
2019-05-07T17:55:26.983Z,4.33
2019-05-07T17:57:55.997Z,3.13
2019-05-07T18:00:25.541Z,3.23
2019-05-07T18:03:16.186Z,4.00
2019-05-07T18:05:45.360Z,4.13
2019-05-07T18:08:14.324Z,3.50
2019-05-07T18:10:43.377Z,4.53
2019-05-07T18:13:12.694Z,3.20
2019-05-07T18:15:42.779Z,3.60
2019-05-07T18:18:12.810Z,3.65
2019-05-07T18:20:42.265Z,4.17
2019-05-07T18:23:16.671Z,4.67
2019-05-07T18:25:42.826Z,4.00
2019-05-07T18:28:12.495Z,4.73
2019-05-07T18:30:41.386Z,3.97
2019-05-07T18:33:33.574Z,3.67
2019-05-07T18:36:02.964Z,4.50
2019-05-07T18:38:32.973Z,3.50
2019-05-07T18:41:02.756Z,5.07
2019-05-07T18:43:33.172Z,4.20
2019-05-07T18:46:02.487Z,3.73
2019-05-07T18:48:31.498Z,3.10
2019-05-07T18:51:02.540Z,4.27
2019-05-07T18:53:31.788Z,3.90
2019-05-07T18:56:01.725Z,4.03
2019-05-07T18:58:31.959Z,3.90
2019-05-07T19:01:04.361Z,4.00
2019-05-07T19:03:34.069Z,4.08
2019-05-07T19:06:03.430Z,5.23
2019-05-07T19:08:35.341Z,5.23
2019-05-07T19:11:05.764Z,4.50
2019-05-07T19:13:34.162Z,4.40
2019-05-07T19:16:03.246Z,4.10
2019-05-07T19:18:32.382Z,4.47
2019-05-07T19:21:01.388Z,5.33
2019-05-07T19:23:30.285Z,4.47
2019-05-07T19:25:59.268Z,4.27
2019-05-07T19:28:28.297Z,4.47
2019-05-07T19:30:57.215Z,5.13
2019-05-07T19:33:27.263Z,5.17
2019-05-07T19:35:56.369Z,4.23
2019-05-07T19:38:25.404Z,4.40
2019-05-07T19:40:54.444Z,3.93
2019-05-07T19:43:23.424Z,3.33
2019-05-07T19:45:52.548Z,4.93
2019-05-07T19:48:23.157Z,4.60
2019-05-07T19:50:52.791Z,4.70
2019-05-07T19:53:23.547Z,4.15
2019-05-07T19:56:14.433Z,4.50
2019-05-07T19:58:43.538Z,3.47
2019-05-07T20:01:14.573Z,4.10
2019-05-07T20:03:43.621Z,3.50
2019-05-07T20:06:13.021Z,4.03
2019-05-07T20:08:43.604Z,4.60
2019-05-07T20:11:26.140Z,4.10
2019-05-07T20:13:55.052Z,4.60
2019-05-07T20:16:23.912Z,3.80
2019-05-07T20:18:52.890Z,3.87
2019-05-07T20:21:22.920Z,4.30
2019-05-07T20:23:52.804Z,4.13
2019-05-07T20:26:23.209Z,3.63
2019-05-07T20:28:52.816Z,4.23
2019-05-07T20:31:22.504Z,4.17
2019-05-07T20:33:53.070Z,4.07
2019-05-07T20:36:22.277Z,3.83
2019-05-07T20:38:52.187Z,4.57
2019-05-07T20:41:23.294Z,5.57
2019-05-07T20:43:52.515Z,4.37
2019-05-07T20:46:21.465Z,3.60
2019-05-07T20:48:52.490Z,4.93
2019-05-07T20:51:23.098Z,4.30
2019-05-07T20:54:12.812Z,4.58
2019-05-07T20:56:46.695Z,3.93
2019-05-07T20:59:15.689Z,4.40
2019-05-07T21:01:44.721Z,4.50
2019-05-07T21:04:13.622Z,4.80
2019-05-07T21:06:43.311Z,4.93
2019-05-07T21:09:12.754Z,5.30
2019-05-07T21:11:43.101Z,4.63
2019-05-07T21:14:12.313Z,9.87
2019-05-07T21:16:42.493Z,4.80
2019-05-07T21:19:12.831Z,5.30
2019-05-07T21:21:42.329Z,5.57
2019-05-07T21:24:13.014Z,5.20
2019-05-07T21:26:42.523Z,5.10
2019-05-07T21:29:13.690Z,4.27
2019-05-07T21:31:43.057Z,5.00
2019-05-07T21:34:12.669Z,5.20
2019-05-07T21:36:43.261Z,5.10
2019-05-07T21:39:13.213Z,5.27
2019-05-07T21:41:42.797Z,5.30
2019-05-07T21:44:12.151Z,5.53
2019-05-07T21:46:42.552Z,5.33
2019-05-07T21:49:12.343Z,5.43
2019-05-07T21:51:41.363Z,5.13
2019-05-07T21:54:25.624Z,5.10
2019-05-07T21:57:15.421Z,5.13
2019-05-07T21:59:44.303Z,5.53
2019-05-07T22:02:18.257Z,5.13
2019-05-07T22:04:47.182Z,5.10
2019-05-07T22:07:17.559Z,5.20
2019-05-07T22:09:46.470Z,5.70
2019-05-07T22:12:15.410Z,5.70
2019-05-07T22:14:44.321Z,5.60
2019-05-07T22:17:13.292Z,5.60
2019-05-07T22:19:42.758Z,5.43
2019-05-07T22:22:12.367Z,5.30
2019-05-07T22:24:42.603Z,5.80
2019-05-07T22:27:12.929Z,5.97
2019-05-07T22:29:42.166Z,6.13
2019-05-07T22:32:29.063Z,5.33
2019-05-07T22:35:06.787Z,6.03
2019-05-07T22:37:35.883Z,5.57
2019-05-07T22:40:05.658Z,5.47
2019-05-07T22:42:34.775Z,5.90
2019-05-07T22:45:06.055Z,6.00
2019-05-07T22:47:35.083Z,5.53
2019-05-07T22:50:04.530Z,6.28
2019-05-07T22:52:33.512Z,5.73
2019-05-07T22:55:02.778Z,6.47
2019-05-07T22:57:42.057Z,5.57
2019-05-07T23:00:15.041Z,6.57
2019-05-07T23:02:44.064Z,5.77
2019-05-07T23:05:14.048Z,6.33
2019-05-07T23:07:44.000Z,6.00
2019-05-07T23:10:13.408Z,6.07
2019-05-07T23:12:42.655Z,5.77
2019-05-07T23:15:11.989Z,6.20
2019-05-07T23:17:41.556Z,5.77
2019-05-07T23:20:10.624Z,5.27
2019-05-07T23:22:39.559Z,6.10
2019-05-07T23:25:08.609Z,5.40
2019-05-07T23:27:37.484Z,5.97
2019-05-07T23:30:06.779Z,5.90
2019-05-07T23:32:35.784Z,6.03
2019-05-07T23:35:04.815Z,6.07
2019-05-07T23:37:33.670Z,6.07
2019-05-07T23:40:07.205Z,6.13
2019-05-07T23:42:37.458Z,6.70
2019-05-07T23:45:06.753Z,5.43
2019-05-07T23:47:35.688Z,5.87
2019-05-07T23:50:05.099Z,6.03
2019-05-07T23:52:33.990Z,6.30
2019-05-07T23:55:03.000Z,6.27
2019-05-07T23:57:32.646Z,6.17
